Time,TemperatureF,DewpointF,PressureIn,WindDirection,WindDirectionDegrees,WindSpeedMPH,WindSpeedGustMPH,Humidity,HourlyPrecipIn,Conditions,Clouds,dailyrainin,SoftwareType,DateUTC
2013-07-12 00:01:00,66.0,56.0,29.99,SE,129,0.0,3.0,69,0.00,,,0.00,,2013-07-12 04:01:00,
2013-07-12 00:11:00,66.0,56.0,29.99,SE,129,0.0,3.0,69,0.00,,,0.00,,2013-07-12 04:11:00,
2013-07-12 00:22:00,67.0,56.0,30.00,West,262,0.0,3.0,68,0.00,,,0.00,,2013-07-12 04:22:00,
2013-07-12 00:32:00,67.0,56.0,30.00,SE,133,0.0,1.0,67,0.00,,,0.00,,2013-07-12 04:32:00,
2013-07-12 00:43:00,67.0,56.0,30.00,SE,133,0.0,1.0,67,0.00,,,0.00,,2013-07-12 04:43:00,
2013-07-12 00:53:00,67.0,56.0,30.00,SE,138,1.0,3.0,67,0.00,,,0.00,,2013-07-12 04:53:00,
2013-07-12 01:02:00,67.0,56.0,30.00,West,278,0.0,5.0,67,0.00,,,0.00,,2013-07-12 05:02:00,
2013-07-12 01:11:00,67.0,56.0,30.00,West,278,0.0,5.0,67,0.00,,,0.00,,2013-07-12 05:11:00,
2013-07-12 01:22:00,67.0,56.0,30.00,SSW,207,1.0,1.0,67,0.00,,,0.00,,2013-07-12 05:22:00,
2013-07-12 01:32:00,67.0,56.0,30.00,South,180,2.0,3.0,67,0.00,,,0.00,,2013-07-12 05:32:00,
2013-07-12 01:43:00,67.0,56.0,30.00,South,180,2.0,3.0,67,0.00,,,0.00,,2013-07-12 05:43:00,
2013-07-12 01:53:00,67.0,56.0,30.00,ESE,112,1.0,2.0,67,0.00,,,0.00,,2013-07-12 05:53:00,
2013-07-12 02:01:00,66.0,55.0,29.99,SW,230,0.0,2.0,67,0.00,,,0.00,,2013-07-12 06:01:00,
2013-07-12 02:11:00,66.0,55.0,29.99,SW,230,0.0,2.0,67,0.00,,,0.00,,2013-07-12 06:11:00,
2013-07-12 02:22:00,66.0,55.0,29.99,SE,130,0.0,6.0,67,0.00,,,0.00,,2013-07-12 06:22:00,
2013-07-12 02:33:00,66.0,55.0,29.99,NW,315,0.0,2.0,68,0.00,,,0.00,,2013-07-12 06:33:00,
2013-07-12 02:42:00,66.0,55.0,29.99,NW,315,0.0,2.0,68,0.00,,,0.00,,2013-07-12 06:42:00,
2013-07-12 02:52:00,66.0,55.0,29.98,SW,225,0.0,0.0,68,0.00,,,0.00,,2013-07-12 06:52:00,
2013-07-12 03:02:00,65.0,55.0,29.99,West,270,0.0,0.0,69,0.00,,,0.00,,2013-07-12 07:02:00,
2013-07-12 03:12:00,65.0,55.0,29.99,West,270,0.0,0.0,69,0.00,,,0.00,,2013-07-12 07:12:00,
2013-07-12 03:22:00,64.0,54.0,30.00,NNW,327,0.0,0.0,70,0.00,,,0.00,,2013-07-12 07:22:00,
2013-07-12 03:32:00,63.0,54.0,30.00,NW,315,0.0,0.0,72,0.00,,,0.00,,2013-07-12 07:32:00,
2013-07-12 03:43:00,63.0,54.0,30.00,NW,315,0.0,0.0,72,0.00,,,0.00,,2013-07-12 07:43:00,
2013-07-12 03:52:00,63.0,54.0,30.00,WSW,248,0.0,1.0,72,0.00,,,0.00,,2013-07-12 07:52:00,
2013-07-12 04:01:00,64.0,55.0,30.01,NW,315,0.0,0.0,73,0.00,,,0.00,,2013-07-12 08:01:00,
2013-07-12 04:11:00,64.0,55.0,30.01,NW,315,0.0,0.0,73,0.00,,,0.00,,2013-07-12 08:11:00,
2013-07-12 04:21:00,64.0,55.0,30.01,ESE,120,1.0,1.0,73,0.00,,,0.00,,2013-07-12 08:21:00,
2013-07-12 04:32:00,64.0,55.0,30.01,NW,314,0.0,1.0,73,0.00,,,0.00,,2013-07-12 08:32:00,
2013-07-12 04:42:00,64.0,55.0,30.01,NW,314,0.0,1.0,73,0.00,,,0.00,,2013-07-12 08:42:00,
2013-07-12 04:53:00,64.0,55.0,30.01,SSW,202,0.0,0.0,73,0.00,,,0.00,,2013-07-12 08:53:00,
2013-07-12 05:02:00,64.0,55.0,30.01,West,270,0.0,0.0,72,0.00,,,0.00,,2013-07-12 09:02:00,
2013-07-12 05:12:00,64.0,55.0,30.01,West,270,0.0,0.0,72,0.00,,,0.00,,2013-07-12 09:12:00,
2013-07-12 05:22:00,64.0,54.0,30.01,NW,315,0.0,1.0,71,0.00,,,0.00,,2013-07-12 09:22:00,
2013-07-12 05:32:00,64.0,54.0,30.01,WNW,292,0.0,0.0,71,0.00,,,0.00,,2013-07-12 09:32:00,
2013-07-12 05:43:00,64.0,54.0,30.01,WNW,292,0.0,0.0,71,0.00,,,0.00,,2013-07-12 09:43:00,
2013-07-12 05:52:00,64.0,54.0,30.01,West,270,0.0,0.0,70,0.00,,,0.00,,2013-07-12 09:52:00,
2013-07-12 06:01:00,64.0,54.0,30.01,NW,315,0.0,1.0,70,0.00,,,0.00,,2013-07-12 10:01:00,
2013-07-12 06:11:00,64.0,54.0,30.01,NW,315,0.0,1.0,70,0.00,,,0.00,,2013-07-12 10:11:00,
2013-07-12 06:22:00,64.0,54.0,30.01,WSW,249,0.0,0.0,71,0.00,,,0.00,,2013-07-12 10:22:00,
2013-07-12 06:33:00,63.0,53.0,30.01,NW,315,0.0,0.0,71,0.00,,,0.00,,2013-07-12 10:33:00,
2013-07-12 06:42:00,63.0,53.0,30.01,NW,315,0.0,0.0,71,0.00,,,0.00,,2013-07-12 10:42:00,
2013-07-12 06:52:00,63.0,54.0,30.01,South,181,0.0,0.0,72,0.00,,,0.00,,2013-07-12 10:52:00,
2013-07-12 07:02:00,63.0,54.0,30.01,West,263,0.0,1.0,72,0.00,,,0.00,,2013-07-12 11:02:00,
2013-07-12 07:12:00,63.0,54.0,30.01,West,263,0.0,1.0,72,0.00,,,0.00,,2013-07-12 11:12:00,
2013-07-12 07:22:00,63.0,54.0,30.02,North,0,0.0,0.0,72,0.00,,,0.00,,2013-07-12 11:22:00,
2013-07-12 07:32:00,63.0,54.0,30.02,SE,135,0.0,1.0,72,0.00,,,0.00,,2013-07-12 11:32:00,
2013-07-12 07:43:00,63.0,54.0,30.02,SE,135,0.0,1.0,72,0.00,,,0.00,,2013-07-12 11:43:00,
2013-07-12 07:53:00,64.0,55.0,30.02,SSE,158,1.0,1.0,73,0.00,,,0.00,,2013-07-12 11:53:00,
2013-07-12 08:02:00,65.0,55.0,30.01,SE,135,0.0,1.0,71,0.00,,,0.00,,2013-07-12 12:02:00,
2013-07-12 08:11:00,65.0,55.0,30.01,SE,135,0.0,1.0,71,0.00,,,0.00,,2013-07-12 12:11:00,
2013-07-12 08:22:00,65.0,55.0,30.02,SE,135,1.0,44.0,71,0.00,,,0.00,,2013-07-12 12:22:00,
2013-07-12 08:32:00,66.0,57.0,30.02,WSW,248,0.0,0.0,72,0.00,,,0.00,,2013-07-12 12:32:00,
2013-07-12 08:43:00,66.0,57.0,30.02,WSW,248,0.0,0.0,72,0.00,,,0.00,,2013-07-12 12:43:00,
2013-07-12 08:52:00,68.0,58.0,30.03,WNW,292,0.0,1.0,70,0.00,,,0.00,,2013-07-12 12:52:00,
2013-07-12 09:01:00,69.0,58.0,30.03,West,270,0.0,1.0,68,0.00,,,0.00,,2013-07-12 13:01:00,
2013-07-12 09:12:00,69.0,58.0,30.03,West,270,0.0,1.0,68,0.00,,,0.00,,2013-07-12 13:12:00,
2013-07-12 09:22:00,69.0,58.0,30.03,WNW,294,0.0,1.0,68,0.00,,,0.00,,2013-07-12 13:22:00,
2013-07-12 09:43:00,69.0,58.0,30.03,WNW,292,0.0,0.0,68,0.00,,,0.00,,2013-07-12 13:43:00,
2013-07-12 09:53:00,71.0,60.0,30.03,ESE,112,1.0,3.0,68,0.00,,,0.00,,2013-07-12 13:53:00,
2013-07-12 10:02:00,73.0,61.0,30.04,SE,144,0.0,55.0,66,0.00,,,0.00,,2013-07-12 14:02:00,
2013-07-12 10:11:00,73.0,61.0,30.04,SE,144,0.0,55.0,66,0.00,,,0.00,,2013-07-12 14:11:00,
2013-07-12 10:22:00,74.0,61.0,30.03,West,260,0.0,1.0,65,0.00,,,0.00,,2013-07-12 14:22:00,
2013-07-12 10:32:00,74.0,61.0,30.04,NW,315,0.0,1.0,65,0.00,,,0.00,,2013-07-12 14:32:00,
2013-07-12 10:44:00,74.0,61.0,30.04,NW,315,0.0,1.0,65,0.00,,,0.00,,2013-07-12 14:44:00,
2013-07-12 10:53:00,74.0,61.0,30.04,SSW,201,0.0,2.0,65,0.00,,,0.00,,2013-07-12 14:53:00,
2013-07-12 11:02:00,75.0,62.0,30.03,WSW,245,1.0,2.0,64,0.00,,,0.00,,2013-07-12 15:02:00,
2013-07-12 11:11:00,75.0,62.0,30.03,WSW,245,1.0,2.0,64,0.00,,,0.00,,2013-07-12 15:11:00,
2013-07-12 11:22:00,77.0,63.0,30.02,WNW,292,1.0,2.0,62,0.00,,,0.00,,2013-07-12 15:22:00,
2013-07-12 11:33:00,79.0,63.0,30.01,ESE,118,2.0,3.0,59,0.00,,,0.00,,2013-07-12 15:33:00,
2013-07-12 11:43:00,79.0,63.0,30.01,ESE,118,2.0,3.0,59,0.00,,,0.00,,2013-07-12 15:43:00,
2013-07-12 12:11:00,82.0,64.0,30.02,East,93,0.0,6.0,55,0.00,,,0.00,,2013-07-12 16:11:00,
2013-07-12 14:34:00,87.0,64.0,30.00,NW,315,1.0,3.0,47,0.00,,,0.00,,2013-07-12 18:34:00,
2013-07-12 15:04:00,87.0,64.0,29.99,SE,135,3.0,6.0,46,0.00,,,0.00,,2013-07-12 19:04:00,
2013-07-12 15:15:00,87.0,65.0,29.99,SE,135,3.0,5.0,48,0.00,,,0.00,,2013-07-12 19:15:00,
2013-07-12 15:23:00,87.0,64.0,29.99,WNW,292,2.0,5.0,47,0.00,,,0.00,,2013-07-12 19:23:00,
2013-07-12 15:33:00,86.0,64.0,29.99,SE,135,1.0,7.0,48,0.00,,,0.00,,2013-07-12 19:33:00,
2013-07-12 15:45:00,86.0,64.0,29.99,SE,135,1.0,7.0,48,0.00,,,0.00,,2013-07-12 19:45:00,
2013-07-12 15:56:00,86.0,65.0,29.99,ENE,68,2.0,2.0,49,0.00,,,0.00,,2013-07-12 19:56:00,
2013-07-12 16:02:00,85.0,64.0,29.98,West,270,1.0,9.0,49,0.00,,,0.00,,2013-07-12 20:02:00,
2013-07-12 16:24:00,85.0,64.0,29.98,West,270,1.0,3.0,50,0.00,,,0.00,,2013-07-12 20:24:00,
2013-07-12 16:33:00,85.0,64.0,29.98,South,171,0.0,5.0,49,0.00,,,0.00,,2013-07-12 20:33:00,
2013-07-12 16:44:00,85.0,64.0,29.98,South,171,0.0,5.0,49,0.00,,,0.00,,2013-07-12 20:44:00,
2013-07-12 16:55:00,84.0,64.0,29.98,SSE,158,1.0,5.0,51,0.00,,,0.00,,2013-07-12 20:55:00,
2013-07-12 17:03:00,84.0,63.0,29.98,SSE,157,5.0,5.0,49,0.00,,,0.00,,2013-07-12 21:03:00,
2013-07-12 17:25:00,83.0,63.0,29.98,SE,135,2.0,28.0,51,0.00,,,0.00,,2013-07-12 21:25:00,
2013-07-12 17:35:00,83.0,62.0,29.97,SE,135,9.0,13.0,49,0.00,,,0.00,,2013-07-12 21:35:00,
2013-07-12 17:46:00,83.0,62.0,29.97,SE,135,9.0,13.0,49,0.00,,,0.00,,2013-07-12 21:46:00,
2013-07-12 17:58:00,83.0,62.0,29.97,WSW,248,0.0,2.0,50,0.00,,,0.00,,2013-07-12 21:58:00,
2013-07-12 18:04:00,83.0,62.0,29.96,ESE,112,4.0,5.0,50,0.00,,,0.00,,2013-07-12 22:04:00,
2013-07-12 18:16:00,83.0,62.0,29.96,ESE,112,4.0,5.0,50,0.00,,,0.00,,2013-07-12 22:16:00,
2013-07-12 18:24:00,82.0,61.0,29.97,ESE,112,3.0,8.0,50,0.00,,,0.00,,2013-07-12 22:24:00,
2013-07-12 18:33:00,82.0,62.0,29.97,NNW,338,2.0,2.0,51,0.00,,,0.00,,2013-07-12 22:33:00,
2013-07-12 18:44:00,82.0,62.0,29.97,NNW,338,2.0,2.0,51,0.00,,,0.00,,2013-07-12 22:44:00,
2013-07-12 18:56:00,81.0,62.0,29.96,West,270,0.0,2.0,53,0.00,,,0.00,,2013-07-12 22:56:00,
2013-07-12 19:03:00,80.0,61.0,29.97,SSE,158,2.0,2.0,52,0.00,,,0.00,,2013-07-12 23:03:00,
2013-07-12 19:13:00,80.0,61.0,29.97,SSE,158,2.0,2.0,52,0.00,,,0.00,,2013-07-12 23:13:00,
2013-07-12 19:25:00,80.0,61.0,29.97,East,90,0.0,5.0,52,0.00,,,0.00,,2013-07-12 23:25:00,
2013-07-12 19:34:00,80.0,61.0,29.97,SSW,212,2.0,2.0,52,0.00,,,0.00,,2013-07-12 23:34:00,
2013-07-12 19:43:00,80.0,61.0,29.97,SSW,212,2.0,2.0,52,0.00,,,0.00,,2013-07-12 23:43:00,
2013-07-12 19:58:00,79.0,61.0,29.97,SSE,158,1.0,6.0,54,0.00,,,0.00,,2013-07-12 23:58:00,
2013-07-12 20:05:00,79.0,61.0,29.96,ESE,112,0.0,1.0,55,0.00,,,0.00,,2013-07-13 00:05:00,
2013-07-12 20:25:00,79.0,61.0,29.96,East,90,1.0,5.0,55,0.00,,,0.00,,2013-07-13 00:25:00,
2013-07-12 20:33:00,78.0,62.0,29.96,SE,135,0.0,3.0,57,0.00,,,0.00,,2013-07-13 00:33:00,
2013-07-12 20:46:00,78.0,62.0,29.96,SE,135,0.0,3.0,57,0.00,,,0.00,,2013-07-13 00:46:00,
2013-07-12 20:56:00,78.0,63.0,29.96,WSW,248,0.0,0.0,60,0.00,,,0.00,,2013-07-13 00:56:00,
2013-07-12 21:03:00,78.0,63.0,29.96,WSW,248,0.0,0.0,60,0.00,,,0.00,,2013-07-13 01:03:00,
2013-07-12 21:13:00,77.0,62.0,29.96,East,90,2.0,2.0,60,0.00,,,0.00,,2013-07-13 01:13:00,
2013-07-12 21:24:00,77.0,62.0,29.96,East,90,2.0,2.0,60,0.00,,,0.00,,2013-07-13 01:24:00,
2013-07-12 21:37:00,76.0,62.0,29.95,ENE,68,0.0,2.0,61,0.00,,,0.00,,2013-07-13 01:37:00,
2013-07-12 21:47:00,76.0,62.0,29.95,ENE,68,0.0,2.0,61,0.00,,,0.00,,2013-07-13 01:47:00,
2013-07-12 21:55:00,76.0,62.0,29.95,ENE,68,0.0,2.0,61,0.00,,,0.00,,2013-07-13 01:55:00,
2013-07-12 22:05:00,73.0,61.0,29.95,NE,45,0.0,1.0,66,0.00,,,0.00,,2013-07-13 02:05:00,
2013-07-12 22:14:00,73.0,61.0,29.95,NE,45,0.0,1.0,66,0.00,,,0.00,,2013-07-13 02:14:00,
2013-07-12 22:24:00,73.0,61.0,29.95,NE,45,0.0,1.0,66,0.00,,,0.00,,2013-07-13 02:24:00,
2013-07-12 22:46:00,72.0,60.0,29.94,SSW,195,7.0,8.0,66,0.00,,,0.00,,2013-07-13 02:46:00,
2013-07-12 22:55:00,73.0,60.0,29.94,North,2,1.0,2.0,64,0.00,,,0.00,,2013-07-13 02:55:00,
2013-07-12 23:05:00,73.0,60.0,29.94,NNE,22,1.0,3.0,63,0.00,,,0.00,,2013-07-13 03:05:00,
2013-07-12 23:13:00,73.0,60.0,29.94,NNE,22,1.0,3.0,63,0.00,,,0.00,,2013-07-13 03:13:00,
2013-07-12 23:27:00,73.0,60.0,29.94,NNE,22,1.0,3.0,63,0.00,,,0.00,,2013-07-13 03:27:00,
2013-07-12 23:36:00,74.0,60.0,29.94,SW,226,0.0,2.0,62,0.00,,,0.00,,2013-07-13 03:36:00,
2013-07-12 23:44:00,74.0,60.0,29.94,SW,226,0.0,2.0,62,0.00,,,0.00,,2013-07-13 03:44:00,
2013-07-12 23:57:00,73.0,59.0,29.94,SSE,158,1.0,12.0,62,0.00,,,0.00,,2013-07-13 03:57:00,